Time;durP1;ratioP1;P1;durP2;ratioP2;P2;SDS_P1;SDS_P2;PMS_P1;PMS_P2;Temp;Humidity;BMP_temperature;BMP_pressure;BME280_temperature;BME280_humidity;BME280_pressure;Samples;Min_cycle;Max_cycle;Signal;HPM_P1;HPM_P2
2022/04/17 00:00:05;;;;;;;2.73;2.10;;;;;;;;;;5031719;28;20234;-84
2022/04/17 00:02:32;;;;;;;2.67;2.10;;;;;;;;;;5032323;28;20283;-84
2022/04/17 00:04:59;;;;;;;2.70;2.50;;;;;;;;;;5031967;28;20647;-84
2022/04/17 00:07:26;;;;;;;2.70;2.50;;;;;;;;;;5036342;28;20215;-84
2022/04/17 00:09:53;;;;;;;4.17;2.30;;;;;;;;;;5035944;28;20242;-84
2022/04/17 00:12:23;;;;;;;2.40;2.30;;;;;;;;;;5036506;28;20621;-84
2022/04/17 00:14:50;;;;;;;2.30;2.20;;;;;;;;;;5035922;28;20260;-84
2022/04/17 00:17:19;;;;;;;2.73;2.33;;;;;;;;;;5036470;28;20206;-84
2022/04/17 00:19:46;;;;;;;2.40;2.30;;;;;;;;;;5035512;28;20234;-84
2022/04/17 00:22:14;;;;;;;4.17;2.50;;;;;;;;;;5036282;28;20206;-84
2022/04/17 00:24:41;;;;;;;2.33;2.23;;;;;;;;;;5035654;28;20318;-84
2022/04/17 00:27:09;;;;;;;2.40;2.20;;;;;;;;;;5036170;28;20237;-84
2022/04/17 00:29:36;;;;;;;8.13;2.60;;;;;;;;;;5035493;28;20238;-84
2022/04/17 00:32:03;;;;;;;2.40;2.20;;;;;;;;;;5036331;28;20703;-84
2022/04/17 00:34:31;;;;;;;2.67;2.40;;;;;;;;;;5035437;28;20211;-84
2022/04/17 00:36:59;;;;;;;3.33;2.63;;;;;;;;;;5035942;28;20209;-84
2022/04/17 00:39:26;;;;;;;2.60;2.40;;;;;;;;;;5035281;28;20235;-84
2022/04/17 00:41:54;;;;;;;3.20;2.87;;;;;;;;;;5039482;28;20207;-84
2022/04/17 00:44:21;;;;;;;2.50;2.40;;;;;;;;;;5038944;28;20264;-85
2022/04/17 00:46:48;;;;;;;2.40;2.20;;;;;;;;;;5036831;28;20203;-85
2022/04/17 00:49:15;;;;;;;3.83;2.30;;;;;;;;;;5035476;28;20233;-83
2022/04/17 00:51:44;;;;;;;3.07;2.87;;;;;;;;;;5035139;28;20234;-83
2022/04/17 00:54:13;;;;;;;5.50;2.70;;;;;;;;;;5035769;28;20206;-82
2022/04/17 00:56:40;;;;;;;2.43;2.23;;;;;;;;;;5037039;28;20262;-84
2022/04/17 00:59:09;;;;;;;5.40;4.07;;;;;;;;;;5038201;28;20237;-85
2022/04/17 01:01:37;;;;;;;4.33;3.03;;;;;;;;;;5037561;28;20715;-85
2022/04/17 01:04:04;;;;;;;2.80;2.60;;;;;;;;;;5041952;28;20233;-84
2022/04/17 01:06:32;;;;;;;2.40;2.30;;;;;;;;;;5052387;28;20222;-85
2022/04/17 01:09:00;;;;;;;2.50;2.30;;;;;;;;;;5053430;28;20229;-85
2022/04/17 01:11:28;;;;;;;3.20;2.87;;;;;;;;;;5056727;28;20253;-83
2022/04/17 01:13:55;;;;;;;3.43;2.50;;;;;;;;;;5047858;28;20214;-84
2022/04/17 01:16:23;;;;;;;4.70;2.70;;;;;;;;;;5037090;28;20233;-84
2022/04/17 01:18:56;;;;;;;2.93;2.73;;;;;;;;;;5036457;28;20326;-84
2022/04/17 01:21:25;;;;;;;2.23;2.13;;;;;;;;;;5035943;28;20605;-85
2022/04/17 01:26:58;;;;;;;2.87;2.50;;;;;;;;;;5051180;28;20715;-84
2022/04/17 01:29:26;;;;;;;4.57;2.30;;;;;;;;;;5054939;28;20232;-83
2022/04/17 01:31:53;;;;;;;2.90;2.70;;;;;;;;;;5056561;28;20245;-84
2022/04/17 01:34:21;;;;;;;2.70;2.50;;;;;;;;;;5055873;28;20205;-84
2022/04/17 01:36:50;;;;;;;3.00;2.63;;;;;;;;;;5055607;28;20641;-84
2022/04/17 01:39:17;;;;;;;3.77;2.60;;;;;;;;;;5055678;28;20239;-84
2022/04/17 01:41:44;;;;;;;2.80;2.60;;;;;;;;;;5054556;28;20262;-84
2022/04/17 01:44:12;;;;;;;3.00;2.70;;;;;;;;;;5054934;28;20207;-84
2022/04/17 01:46:39;;;;;;;2.97;2.77;;;;;;;;;;5054032;28;20291;-84
2022/04/17 01:49:06;;;;;;;4.13;2.50;;;;;;;;;;5054331;28;20613;-84
2022/04/17 01:51:38;;;;;;;2.93;2.73;;;;;;;;;;5053746;28;20237;-83
2022/04/17 01:54:07;;;;;;;2.90;2.67;;;;;;;;;;5054699;28;20213;-84
2022/04/17 01:56:34;;;;;;;2.57;2.43;;;;;;;;;;5053851;28;20260;-84
2022/04/17 01:59:01;;;;;;;2.80;2.60;;;;;;;;;;5054073;28;20266;-84
2022/04/17 02:01:29;;;;;;;4.27;2.83;;;;;;;;;;5053794;28;20240;-84
2022/04/17 02:03:56;;;;;;;3.70;2.70;;;;;;;;;;5054605;28;20220;-83
2022/04/17 02:06:23;;;;;;;3.10;2.90;;;;;;;;;;5053832;28;20234;-84
2022/04/17 02:08:51;;;;;;;4.00;3.30;;;;;;;;;;5053742;28;20731;-84
2022/04/17 02:11:19;;;;;;;3.63;3.33;;;;;;;;;;5053578;28;20329;-83
2022/04/17 02:13:46;;;;;;;4.17;2.90;;;;;;;;;;5054000;28;20219;-84
2022/04/17 02:16:14;;;;;;;3.00;2.80;;;;;;;;;;5053492;28;20240;-84
2022/04/17 02:18:42;;;;;;;3.40;3.10;;;;;;;;;;5053732;28;20235;-83
2022/04/17 02:21:09;;;;;;;3.30;3.00;;;;;;;;;;5053579;28;20264;-83
2022/04/17 02:23:36;;;;;;;3.13;2.93;;;;;;;;;;5053681;28;20569;-84
2022/04/17 02:26:04;;;;;;;3.70;3.10;;;;;;;;;;5053319;28;20243;-83
2022/04/17 02:28:35;;;;;;;4.10;3.00;;;;;;;;;;5052917;28;20297;-83
2022/04/17 02:31:02;;;;;;;3.30;3.00;;;;;;;;;;5061425;28;20254;-83
2022/04/17 02:33:29;;;;;;;3.10;2.90;;;;;;;;;;5053683;28;20208;-83
2022/04/17 02:35:56;;;;;;;3.10;2.77;;;;;;;;;;5053329;28;20234;-84
2022/04/17 02:38:24;;;;;;;2.90;2.77;;;;;;;;;;5053732;28;20226;-83
2022/04/17 02:40:51;;;;;;;3.20;2.90;;;;;;;;;;5053395;28;20243;-83
2022/04/17 02:43:18;;;;;;;2.93;2.70;;;;;;;;;;5062019;28;20210;-83
2022/04/17 02:45:46;;;;;;;2.83;2.63;;;;;;;;;;5074190;28;20250;-83
2022/04/17 02:48:14;;;;;;;3.20;3.00;;;;;;;;;;5074484;28;20231;-83
2022/04/17 02:50:41;;;;;;;3.03;2.73;;;;;;;;;;5067760;28;20256;-83
2022/04/17 02:53:08;;;;;;;3.03;2.80;;;;;;;;;;5053921;28;20683;-83
2022/04/17 02:55:36;;;;;;;2.70;2.50;;;;;;;;;;5053334;28;20246;-83
2022/04/17 02:58:03;;;;;;;4.97;2.97;;;;;;;;;;5053497;28;20588;-83
2022/04/17 03:00:31;;;;;;;2.73;2.53;;;;;;;;;;5052625;28;20234;-83
2022/04/17 03:05:44;;;;;;;2.93;2.73;;;;;;;;;;5032629;28;20239;-83
2022/04/17 03:08:13;;;;;;;2.87;2.67;;;;;;;;;;5033206;28;20574;-83
2022/04/17 03:10:41;;;;;;;3.13;2.50;;;;;;;;;;5032525;28;20231;-83
2022/04/17 03:13:09;;;;;;;2.67;2.47;;;;;;;;;;5033154;28;20595;-83
2022/04/17 03:15:37;;;;;;;4.70;2.90;;;;;;;;;;5032385;28;20236;-83
2022/04/17 03:18:06;;;;;;;5.60;3.00;;;;;;;;;;5032946;28;20578;-83
2022/04/17 03:20:33;;;;;;;2.93;2.73;;;;;;;;;;5032389;28;20238;-83
2022/04/17 03:23:00;;;;;;;4.00;3.27;;;;;;;;;;5033374;28;20211;-83
2022/04/17 03:25:27;;;;;;;3.67;3.00;;;;;;;;;;5032373;28;20581;-83
2022/04/17 03:27:54;;;;;;;3.93;3.37;;;;;;;;;;5033056;28;20210;-83
2022/04/17 03:30:21;;;;;;;3.67;3.13;;;;;;;;;;5032177;28;20261;-83
2022/04/17 03:32:49;;;;;;;3.00;2.80;;;;;;;;;;5033094;28;20207;-83
2022/04/17 03:35:18;;;;;;;2.90;2.77;;;;;;;;;;5032386;28;20288;-83
2022/04/17 03:37:45;;;;;;;2.90;2.70;;;;;;;;;;5032604;28;20238;-83
2022/04/17 03:40:13;;;;;;;5.37;2.90;;;;;;;;;;5030916;28;20234;-83
2022/04/17 03:42:40;;;;;;;3.17;2.87;;;;;;;;;;5032685;28;20575;-83
2022/04/17 03:45:08;;;;;;;4.57;2.80;;;;;;;;;;5032339;28;20748;-84
2022/04/17 03:47:36;;;;;;;3.93;2.80;;;;;;;;;;5032928;28;20217;-83
2022/04/17 03:50:03;;;;;;;3.27;2.93;;;;;;;;;;5031545;28;20644;-83
2022/04/17 03:52:40;;;;;;;5.23;2.80;;;;;;;;;;5032542;28;20575;-83
2022/04/17 03:55:07;;;;;;;3.47;3.00;;;;;;;;;;5032272;28;20667;-83
2022/04/17 03:57:35;;;;;;;2.63;2.50;;;;;;;;;;5032720;28;20606;-83
2022/04/17 04:00:02;;;;;;;3.20;2.90;;;;;;;;;;5031752;28;20230;-83
2022/04/17 04:02:29;;;;;;;2.90;2.70;;;;;;;;;;5032496;28;20221;-83
2022/04/17 04:04:57;;;;;;;4.27;2.80;;;;;;;;;;5031973;28;20250;-83
2022/04/17 04:07:24;;;;;;;2.90;2.70;;;;;;;;;;5032747;28;20207;-83
2022/04/17 04:09:52;;;;;;;3.07;2.87;;;;;;;;;;5031701;28;20238;-83
2022/04/17 04:12:20;;;;;;;7.73;3.10;;;;;;;;;;5032579;28;20256;-83
2022/04/17 04:14:47;;;;;;;3.87;3.13;;;;;;;;;;5031717;28;20235;-83
2022/04/17 04:17:14;;;;;;;2.90;2.70;;;;;;;;;;5032061;28;20207;-83
2022/04/17 04:19:41;;;;;;;4.80;3.30;;;;;;;;;;5031556;28;20238;-83
2022/04/17 04:22:08;;;;;;;3.47;3.17;;;;;;;;;;5032275;28;20211;-83
2022/04/17 04:24:35;;;;;;;6.00;3.10;;;;;;;;;;5032601;28;20214;-81
2022/04/17 04:29:48;;;;;;;3.93;3.00;;;;;;;;;;5031496;28;20926;-83
2022/04/17 04:32:15;;;;;;;2.97;2.80;;;;;;;;;;5040413;28;20231;-83
2022/04/17 04:34:43;;;;;;;2.83;2.63;;;;;;;;;;5033154;28;20683;-83
2022/04/17 04:37:10;;;;;;;3.30;2.73;;;;;;;;;;5032993;28;20203;-83
2022/04/17 04:39:38;;;;;;;6.20;2.93;;;;;;;;;;5033020;28;21636;-83
2022/04/17 04:42:07;;;;;;;3.10;2.90;;;;;;;;;;5033002;28;20737;-83
2022/04/17 04:44:34;;;;;;;3.17;2.90;;;;;;;;;;5031776;28;20743;-83
2022/04/17 04:47:00;;;;;;;3.33;2.87;;;;;;;;;;5032166;28;20207;-83
2022/04/17 04:49:33;;;;;;;3.50;3.00;;;;;;;;;;5030982;28;20258;-83
2022/04/17 04:52:01;;;;;;;3.83;3.30;;;;;;;;;;5033624;28;20190;-83
2022/04/17 04:54:28;;;;;;;3.30;3.00;;;;;;;;;;5035341;28;20234;-83
2022/04/17 04:56:55;;;;;;;3.00;2.80;;;;;;;;;;5035816;28;20241;-83
2022/04/17 04:59:24;;;;;;;3.10;2.90;;;;;;;;;;5035171;28;20229;-83
2022/04/17 05:01:51;;;;;;;3.20;3.00;;;;;;;;;;5035772;28;20234;-83
2022/04/17 05:04:20;;;;;;;3.60;3.33;;;;;;;;;;5036089;28;20210;-82
2022/04/17 05:06:47;;;;;;;2.83;2.70;;;;;;;;;;5036967;28;20225;-82
2022/04/17 05:09:14;;;;;;;3.00;2.80;;;;;;;;;;5036397;28;20714;-82
2022/04/17 05:11:41;;;;;;;4.07;3.70;;;;;;;;;;5036243;28;20231;-82
2022/04/17 05:14:09;;;;;;;3.47;3.17;;;;;;;;;;5037409;28;20211;-82
2022/04/17 05:16:37;;;;;;;7.30;3.43;;;;;;;;;;5036115;28;20230;-82
2022/04/17 05:19:20;;;;;;;6.57;3.47;;;;;;;;;;5036840;28;20326;-82
2022/04/17 05:21:48;;;;;;;3.47;3.17;;;;;;;;;;5036902;28;20706;-82
2022/04/17 05:24:15;;;;;;;4.63;3.20;;;;;;;;;;5036830;28;20225;-82
2022/04/17 05:26:42;;;;;;;4.43;3.10;;;;;;;;;;5036671;28;20264;-82
2022/04/17 05:29:09;;;;;;;3.07;2.87;;;;;;;;;;5036755;28;20904;-82
2022/04/17 05:31:37;;;;;;;6.57;3.40;;;;;;;;;;5035879;28;20342;-82
2022/04/17 05:34:04;;;;;;;9.00;3.70;;;;;;;;;;5037110;28;20199;-82
2022/04/17 05:36:31;;;;;;;3.73;3.20;;;;;;;;;;5036072;28;20238;-82
2022/04/17 05:38:58;;;;;;;3.50;3.23;;;;;;;;;;5036178;28;20229;-82
2022/04/17 05:41:26;;;;;;;4.47;3.57;;;;;;;;;;5035736;28;20241;-82
2022/04/17 05:43:54;;;;;;;6.43;3.50;;;;;;;;;;5036502;28;20241;-82
2022/04/17 05:46:21;;;;;;;5.03;3.13;;;;;;;;;;5035813;28;20249;-82
2022/04/17 05:48:49;;;;;;;3.83;3.53;;;;;;;;;;5035621;28;20238;-82
2022/04/17 05:51:16;;;;;;;3.80;3.50;;;;;;;;;;5036172;28;20234;-82
2022/04/17 05:53:43;;;;;;;3.50;3.20;;;;;;;;;;5035193;28;20214;-82
2022/04/17 05:56:10;;;;;;;3.20;3.00;;;;;;;;;;5035366;28;20230;-82
2022/04/17 05:58:38;;;;;;;4.00;3.60;;;;;;;;;;5035544;28;20223;-82
2022/04/17 06:01:05;;;;;;;4.80;3.40;;;;;;;;;;5034827;28;20240;-81
2022/04/17 06:03:32;;;;;;;5.00;3.43;;;;;;;;;;5034113;28;20207;-82
2022/04/17 06:06:00;;;;;;;5.33;3.40;;;;;;;;;;5034369;28;20238;-82
2022/04/17 06:08:28;;;;;;;6.03;3.50;;;;;;;;;;5035210;28;20227;-82
2022/04/17 06:10:55;;;;;;;4.13;3.37;;;;;;;;;;5034183;28;20239;-82
2022/04/17 06:13:22;;;;;;;3.67;3.37;;;;;;;;;;5034845;28;20671;-82
2022/04/17 06:15:49;;;;;;;8.80;3.50;;;;;;;;;;5034749;28;20257;-81
2022/04/17 06:18:16;;;;;;;3.63;3.33;;;;;;;;;;5035814;28;20203;-81
2022/04/17 06:20:43;;;;;;;4.83;3.90;;;;;;;;;;5034223;28;20326;-82
2022/04/17 06:23:11;;;;;;;3.90;3.60;;;;;;;;;;5035135;28;20214;-82
2022/04/17 06:25:38;;;;;;;4.17;3.57;;;;;;;;;;5034362;28;20236;-80
2022/04/17 06:28:06;;;;;;;5.33;3.80;;;;;;;;;;5034931;28;20214;-82
2022/04/17 06:30:33;;;;;;;5.30;4.30;;;;;;;;;;5034024;28;20707;-82
2022/04/17 06:33:00;;;;;;;4.57;3.40;;;;;;;;;;5034796;28;20210;-82
2022/04/17 06:35:27;;;;;;;3.80;3.50;;;;;;;;;;5042187;28;20231;-83
2022/04/17 06:37:55;;;;;;;4.00;3.13;;;;;;;;;;5054110;28;20187;-82
2022/04/17 06:40:24;;;;;;;3.80;3.30;;;;;;;;;;5052881;28;20614;-82
2022/04/17 06:42:51;;;;;;;3.80;2.77;;;;;;;;;;5053579;28;20193;-83
2022/04/17 06:45:18;;;;;;;3.47;3.10;;;;;;;;;;5053155;28;20244;-83
2022/04/17 06:47:46;;;;;;;3.97;2.87;;;;;;;;;;5042811;28;20218;-83
2022/04/17 06:50:14;;;;;;;3.10;2.90;;;;;;;;;;5032579;28;20241;-83
2022/04/17 06:52:41;;;;;;;2.73;2.53;;;;;;;;;;5041683;28;20312;-83
2022/04/17 06:55:11;;;;;;;2.80;2.60;;;;;;;;;;5043017;28;20638;-83
2022/04/17 06:57:40;;;;;;;2.77;2.50;;;;;;;;;;5044352;28;20215;-82
2022/04/17 07:00:09;;;;;;;3.23;2.43;;;;;;;;;;5033195;28;20235;-83
2022/04/17 07:02:36;;;;;;;2.60;2.40;;;;;;;;;;5038546;28;20299;-83
2022/04/17 07:05:03;;;;;;;3.67;2.70;;;;;;;;;;5047023;28;20234;-83
2022/04/17 07:07:30;;;;;;;2.83;2.43;;;;;;;;;;5051861;28;20558;-83
2022/04/17 07:09:57;;;;;;;2.80;2.40;;;;;;;;;;5052751;28;20234;-83
2022/04/17 07:12:24;;;;;;;3.20;2.63;;;;;;;;;;5067328;28;20208;-83
2022/04/17 07:14:53;;;;;;;2.73;2.50;;;;;;;;;;5070281;28;20229;-83
2022/04/17 07:17:20;;;;;;;2.80;2.50;;;;;;;;;;5062713;28;20206;-82
2022/04/17 07:19:47;;;;;;;2.70;2.50;;;;;;;;;;5057656;28;20326;-82
2022/04/17 07:22:14;;;;;;;3.43;2.50;;;;;;;;;;5037301;28;20233;-82
2022/04/17 07:24:43;;;;;;;2.60;2.40;;;;;;;;;;5038977;28;20234;-82
2022/04/17 07:27:14;;;;;;;2.77;2.57;;;;;;;;;;5035528;28;20298;-82
2022/04/17 07:29:41;;;;;;;2.60;2.40;;;;;;;;;;5034228;28;20256;-82
2022/04/17 07:32:10;;;;;;;2.77;2.40;;;;;;;;;;5034449;28;20210;-82
2022/04/17 07:34:37;;;;;;;3.57;2.67;;;;;;;;;;5033482;28;20237;-83
2022/04/17 07:37:05;;;;;;;3.87;2.50;;;;;;;;;;5034673;28;20636;-82
2022/04/17 07:39:32;;;;;;;2.67;2.47;;;;;;;;;;5035734;28;20254;-82
2022/04/17 07:42:00;;;;;;;2.30;2.20;;;;;;;;;;5038774;28;20294;-82
2022/04/17 07:44:29;;;;;;;2.57;2.37;;;;;;;;;;5036768;28;20241;-82
2022/04/17 07:46:56;;;;;;;2.20;2.10;;;;;;;;;;5038554;28;20237;-82
2022/04/17 07:49:26;;;;;;;2.37;2.17;;;;;;;;;;5036998;28;20238;-82
2022/04/17 07:51:54;;;;;;;2.57;2.30;;;;;;;;;;5037582;28;20211;-82
2022/04/17 07:54:22;;;;;;;3.57;2.50;;;;;;;;;;5038243;28;20217;-82
2022/04/17 07:56:49;;;;;;;4.37;2.40;;;;;;;;;;5037303;28;20219;-84
2022/04/17 07:59:16;;;;;;;2.43;2.23;;;;;;;;;;5036367;28;20741;-83
2022/04/17 08:01:46;;;;;;;2.10;2.00;;;;;;;;;;5033970;28;20230;-83
2022/04/17 08:04:13;;;;;;;3.00;2.40;;;;;;;;;;5034559;28;20214;-82
2022/04/17 08:06:41;;;;;;;2.20;1.90;;;;;;;;;;5033114;28;20273;-82
2022/04/17 08:09:08;;;;;;;2.53;2.20;;;;;;;;;;5033185;28;20238;-82
2022/04/17 08:11:37;;;;;;;2.20;2.00;;;;;;;;;;5032504;28;20230;-83
2022/04/17 08:14:04;;;;;;;2.47;2.27;;;;;;;;;;5033586;28;20256;-83
2022/04/17 08:16:31;;;;;;;2.63;1.90;;;;;;;;;;5035416;28;20238;-80
2022/04/17 08:18:58;;;;;;;2.10;1.90;;;;;;;;;;5045514;28;20237;-80
2022/04/17 08:21:25;;;;;;;2.40;2.17;;;;;;;;;;5035914;28;20234;-85
2022/04/17 08:23:54;;;;;;;2.27;1.97;;;;;;;;;;5035243;28;20211;-85
2022/04/17 08:26:21;;;;;;;2.53;2.00;;;;;;;;;;5033195;28;20256;-85
2022/04/17 08:28:48;;;;;;;2.13;1.77;;;;;;;;;;5036679;28;20222;-81
2022/04/17 08:31:15;;;;;;;2.17;1.97;;;;;;;;;;5053639;28;20243;-82
2022/04/17 08:33:42;;;;;;;2.90;2.00;;;;;;;;;;5036981;28;20667;-81
2022/04/17 08:36:09;;;;;;;2.33;1.87;;;;;;;;;;5036195;28;20242;-81
2022/04/17 08:38:36;;;;;;;1.73;1.63;;;;;;;;;;5036185;28;20242;-81
2022/04/17 08:41:06;;;;;;;6.83;2.03;;;;;;;;;;5038455;28;20241;-81
2022/04/17 08:43:33;;;;;;;3.20;2.10;;;;;;;;;;5036486;28;20274;-82
2022/04/17 08:46:00;;;;;;;3.03;1.83;;;;;;;;;;5036874;28;20241;-82
2022/04/17 08:48:28;;;;;;;1.77;1.60;;;;;;;;;;5036587;28;20242;-82
2022/04/17 08:50:56;;;;;;;1.80;1.67;;;;;;;;;;5036837;28;20235;-83
2022/04/17 08:53:24;;;;;;;2.93;1.70;;;;;;;;;;5037142;28;20211;-82
2022/04/17 08:55:51;;;;;;;1.63;1.53;;;;;;;;;;5043683;28;20234;-83
2022/04/17 08:58:20;;;;;;;1.73;1.50;;;;;;;;;;5038055;28;20198;-86
2022/04/17 09:00:47;;;;;;;2.00;1.60;;;;;;;;;;5037246;28;20246;-84
2022/04/17 09:03:14;;;;;;;1.70;1.60;;;;;;;;;;5036276;28;20300;-81
2022/04/17 09:05:41;;;;;;;2.28;1.60;;;;;;;;;;5036460;28;20262;-80
2022/04/17 09:08:16;;;;;;;1.58;1.48;;;;;;;;;;5037756;28;20210;-84
2022/04/17 09:10:53;;;;;;;1.77;1.55;;;;;;;;;;5036300;28;20245;-82
2022/04/17 09:13:28;;;;;;;3.13;1.83;;;;;;;;;;5036461;28;20195;-83
2022/04/17 09:15:55;;;;;;;2.10;1.52;;;;;;;;;;5035765;28;20262;-83
2022/04/17 09:18:22;;;;;;;2.58;2.20;;;;;;;;;;5035763;28;20238;-83
2022/04/17 09:20:49;;;;;;;1.58;1.48;;;;;;;;;;5034789;28;20234;-82
2022/04/17 09:23:17;;;;;;;2.05;1.73;;;;;;;;;;5036336;28;20222;-82
2022/04/17 09:25:45;;;;;;;1.85;1.73;;;;;;;;;;5034901;28;20871;-82
2022/04/17 09:28:12;;;;;;;2.95;2.00;;;;;;;;;;5036478;28;20234;-86
2022/04/17 09:30:43;;;;;;;1.67;1.42;;;;;;;;;;5035952;28;20235;-83
2022/04/17 09:33:11;;;;;;;1.65;1.55;;;;;;;;;;5036398;28;20209;-83
2022/04/17 09:35:38;;;;;;;2.17;1.60;;;;;;;;;;5034986;28;20321;-84
2022/04/17 09:38:05;;;;;;;2.05;1.85;;;;;;;;;;5034746;28;20214;-83
2022/04/17 09:40:33;;;;;;;3.78;1.50;;;;;;;;;;5034037;28;20609;-84
2022/04/17 09:43:11;;;;;;;1.52;1.40;;;;;;;;;;5034894;28;20964;-85
2022/04/17 09:45:53;;;;;;;1.77;1.60;;;;;;;;;;5034135;28;20634;-86
2022/04/17 09:48:21;;;;;;;1.65;1.55;;;;;;;;;;5035543;28;20243;-85
2022/04/17 09:50:48;;;;;;;2.47;1.17;;;;;;;;;;5044081;28;20233;-85
2022/04/17 09:53:30;;;;;;;2.47;1.58;;;;;;;;;;5057213;28;20183;-86
2022/04/17 09:56:05;;;;;;;2.55;1.33;;;;;;;;;;5056449;28;20299;-86
2022/04/17 09:58:33;;;;;;;2.88;1.55;;;;;;;;;;5060749;28;20226;-87
2022/04/17 10:01:03;;;;;;;1.50;1.40;;;;;;;;;;5061030;28;20237;-87
2022/04/17 10:03:32;;;;;;;1.38;1.13;;;;;;;;;;5060947;28;20252;-86
2022/04/17 10:06:00;;;;;;;1.63;1.27;;;;;;;;;;5055041;28;20233;-84
2022/04/17 10:08:27;;;;;;;1.40;1.30;;;;;;;;;;5054848;28;20233;-85
2022/04/17 10:10:54;;;;;;;2.08;1.40;;;;;;;;;;5054263;28;20244;-85
2022/04/17 10:13:22;;;;;;;3.13;1.38;;;;;;;;;;5054700;28;20674;-86
2022/04/17 10:15:51;;;;;;;1.98;1.23;;;;;;;;;;5054877;28;20249;-86
2022/04/17 10:18:20;;;;;;;1.58;1.20;;;;;;;;;;5054619;28;20220;-86
2022/04/17 10:20:49;;;;;;;1.52;1.42;;;;;;;;;;5055336;28;20713;-86
2022/04/17 10:23:16;;;;;;;1.67;1.20;;;;;;;;;;5056719;28;20230;-86
2022/04/17 10:25:46;;;;;;;1.40;1.30;;;;;;;;;;5066085;28;20230;-85
2022/04/17 10:28:13;;;;;;;2.20;1.05;;;;;;;;;;5065033;28;20210;-86
2022/04/17 10:30:47;;;;;;;3.72;1.48;;;;;;;;;;5061478;28;20241;-87
2022/04/17 10:33:23;;;;;;;2.28;1.40;;;;;;;;;;5056954;28;20210;-86
2022/04/17 10:36:03;;;;;;;2.33;1.50;;;;;;;;;;5053559;28;20898;-85
2022/04/17 10:38:31;;;;;;;1.88;1.17;;;;;;;;;;5055124;28;20337;-85
2022/04/17 10:41:00;;;;;;;1.52;1.30;;;;;;;;;;5054692;28;20233;-85
2022/04/17 10:43:38;;;;;;;2.28;1.23;;;;;;;;;;5055497;28;20230;-86
2022/04/17 10:46:13;;;;;;;1.85;1.60;;;;;;;;;;5054589;28;20233;-84
2022/04/17 10:48:50;;;;;;;1.20;1.10;;;;;;;;;;5055023;28;20225;-85
2022/04/17 10:51:20;;;;;;;1.92;1.20;;;;;;;;;;5054071;28;20561;-85
2022/04/17 10:54:05;;;;;;;1.25;1.10;;;;;;;;;;5054816;28;20198;-85
2022/04/17 10:56:34;;;;;;;1.27;1.17;;;;;;;;;;5054044;28;20237;-85
2022/04/17 10:59:03;;;;;;;0.93;0.93;;;;;;;;;;5054318;28;20669;-83
2022/04/17 11:01:49;;;;;;;2.83;1.15;;;;;;;;;;5053704;28;20257;-84
2022/04/17 11:04:16;;;;;;;3.45;1.05;;;;;;;;;;5054723;28;20571;-85
2022/04/17 11:06:45;;;;;;;1.80;1.27;;;;;;;;;;5054064;28;20230;-86
2022/04/17 11:09:15;;;;;;;2.40;1.10;;;;;;;;;;5054443;28;20321;-87
2022/04/17 11:11:43;;;;;;;1.77;1.20;;;;;;;;;;5053342;28;20240;-87
2022/04/17 11:14:12;;;;;;;2.20;1.20;;;;;;;;;;5053397;28;20202;-85
2022/04/17 11:16:46;;;;;;;1.83;1.10;;;;;;;;;;5053319;28;20260;-87
2022/04/17 11:19:14;;;;;;;3.30;1.23;;;;;;;;;;5054146;28;20252;-86
2022/04/17 11:21:44;;;;;;;1.48;1.38;;;;;;;;;;5049928;28;20242;-85
2022/04/17 11:24:13;;;;;;;1.85;1.15;;;;;;;;;;5046714;28;20257;-84
2022/04/17 11:26:59;;;;;;;1.20;0.95;;;;;;;;;;5056553;28;20230;-85
2022/04/17 11:29:37;;;;;;;1.30;1.20;;;;;;;;;;5062302;28;20226;-84
2022/04/17 11:32:26;;;;;;;1.02;0.90;;;;;;;;;;5071364;28;20213;-84
2022/04/17 11:34:57;;;;;;;3.50;1.13;;;;;;;;;;5072024;28;20233;-86
2022/04/17 11:37:24;;;;;;;1.08;1.02;;;;;;;;;;5071817;28;20209;-87
2022/04/17 11:39:53;;;;;;;1.40;1.00;;;;;;;;;;5063767;28;20240;-86
2022/04/17 11:42:21;;;;;;;1.60;1.00;;;;;;;;;;5060368;28;20755;-86
2022/04/17 11:44:49;;;;;;;2.30;1.05;;;;;;;;;;5067091;28;20234;-86
2022/04/17 17:48:27;;;;;;;1.80;1.10;;;;;;;;;;5093543;22;20239;-85
2022/04/17 17:50:55;;;;;;;1.25;1.15;;;;;;;;;;5046252;28;20234;-87
2022/04/17 17:53:22;;;;;;;1.50;1.23;;;;;;;;;;5057237;28;20187;-86
2022/04/17 17:55:49;;;;;;;1.20;1.05;;;;;;;;;;5054743;28;20244;-85
2022/04/17 17:58:16;;;;;;;1.30;1.20;;;;;;;;;;5055076;28;20405;-86
2022/04/17 18:00:43;;;;;;;1.40;1.30;;;;;;;;;;5053513;28;20713;-85
2022/04/17 18:03:11;;;;;;;1.73;1.20;;;;;;;;;;5035213;28;20237;-83
2022/04/17 18:05:40;;;;;;;1.88;0.95;;;;;;;;;;5033162;28;20234;-84
2022/04/17 18:16:21;;;;;;;2.95;1.33;;;;;;;;;;5052875;28;20278;-83
2022/04/17 18:18:49;;;;;;;1.52;1.42;;;;;;;;;;5053075;28;20226;-83
2022/04/17 18:21:18;;;;;;;2.00;1.50;;;;;;;;;;5053642;28;20238;-83
2022/04/17 18:23:46;;;;;;;1.92;1.20;;;;;;;;;;5057554;28;20226;-81
2022/04/17 18:26:14;;;;;;;6.17;1.60;;;;;;;;;;5056099;28;20283;-84
2022/04/17 18:28:41;;;;;;;9.93;1.77;;;;;;;;;;5053314;28;20601;-83
2022/04/17 18:31:08;;;;;;;10.93;2.30;;;;;;;;;;5053411;28;20632;-84
2022/04/17 18:33:35;;;;;;;8.63;1.63;;;;;;;;;;5054091;28;20206;-83
2022/04/17 18:36:03;;;;;;;6.73;1.60;;;;;;;;;;5036479;28;20234;-83
2022/04/17 18:38:33;;;;;;;3.37;1.53;;;;;;;;;;5030284;28;20215;-83
2022/04/17 18:41:00;;;;;;;4.07;1.23;;;;;;;;;;5013727;28;20309;-85
2022/04/17 18:43:27;;;;;;;2.60;1.50;;;;;;;;;;5018412;28;20657;-84
2022/04/17 18:45:54;;;;;;;2.50;1.40;;;;;;;;;;5032784;28;20258;-84
2022/04/17 18:48:21;;;;;;;3.17;1.60;;;;;;;;;;5033413;28;20242;-85
2022/04/17 18:50:48;;;;;;;4.87;1.43;;;;;;;;;;5033435;28;20242;-84
2022/04/17 18:53:16;;;;;;;2.03;1.60;;;;;;;;;;5034573;28;20206;-85
2022/04/17 18:55:44;;;;;;;3.07;1.50;;;;;;;;;;5032915;28;20245;-85
2022/04/17 18:58:14;;;;;;;2.37;1.30;;;;;;;;;;5033464;28;20226;-86
2022/04/17 19:00:41;;;;;;;8.90;1.50;;;;;;;;;;5033285;28;20262;-86
2022/04/17 19:03:08;;;;;;;17.70;2.13;;;;;;;;;;5053086;28;20222;-87
2022/04/17 19:05:35;;;;;;;7.00;1.57;;;;;;;;;;5052320;28;20230;-87
2022/04/17 19:08:02;;;;;;;3.57;2.07;;;;;;;;;;5062626;28;20225;-87
2022/04/17 19:10:29;;;;;;;4.77;1.40;;;;;;;;;;5053931;28;20237;-87
2022/04/17 19:15:43;;;;;;;4.20;1.60;;;;;;;;;;5033173;28;20249;-86
2022/04/17 19:18:10;;;;;;;1.60;1.50;;;;;;;;;;5033389;28;20261;-86
2022/04/17 19:20:38;;;;;;;5.20;1.57;;;;;;;;;;5031583;28;20238;-85
2022/04/17 19:23:06;;;;;;;1.70;1.60;;;;;;;;;;5020395;28;20215;-86
2022/04/17 19:25:33;;;;;;;1.43;1.23;;;;;;;;;;5033350;28;20241;-86
2022/04/17 19:28:01;;;;;;;2.83;1.67;;;;;;;;;;5033132;28;20237;-86
2022/04/17 19:30:29;;;;;;;3.10;1.63;;;;;;;;;;5032944;28;20254;-87
2022/04/17 19:35:41;;;;;;;4.47;1.53;;;;;;;;;;5020423;28;20241;-87
2022/04/17 19:38:08;;;;;;;1.83;1.50;;;;;;;;;;5032642;28;20265;-86
2022/04/17 19:40:36;;;;;;;1.87;1.60;;;;;;;;;;5024888;28;20227;-86
2022/04/17 19:43:04;;;;;;;1.50;1.40;;;;;;;;;;5027407;28;20206;-86
2022/04/17 19:45:32;;;;;;;2.43;2.23;;;;;;;;;;5024207;28;20226;-84
2022/04/17 19:48:00;;;;;;;2.93;1.90;;;;;;;;;;5025087;28;20732;-86
2022/04/17 19:50:27;;;;;;;2.07;1.87;;;;;;;;;;5034109;28;20227;-87
2022/04/17 19:52:54;;;;;;;1.80;1.70;;;;;;;;;;5034187;28;20657;-86
2022/04/17 19:55:23;;;;;;;2.63;1.60;;;;;;;;;;5032401;28;20705;-88
2022/04/17 19:57:51;;;;;;;2.03;1.83;;;;;;;;;;5032860;28;20226;-87
2022/04/17 20:00:20;;;;;;;1.97;1.87;;;;;;;;;;5051253;28;20294;-88
2022/04/17 20:02:47;;;;;;;2.20;2.00;;;;;;;;;;5054700;28;20187;-88
2022/04/17 20:05:14;;;;;;;2.20;1.93;;;;;;;;;;5053407;28;20238;-88
2022/04/17 20:07:41;;;;;;;2.10;1.70;;;;;;;;;;5036097;28;20233;-87
2022/04/17 20:10:08;;;;;;;3.10;1.93;;;;;;;;;;5032756;28;20249;-87
2022/04/17 20:12:35;;;;;;;2.03;1.83;;;;;;;;;;5032700;28;20534;-87
2022/04/17 20:15:03;;;;;;;2.10;1.90;;;;;;;;;;5032272;28;20226;-87
2022/04/17 20:17:31;;;;;;;2.63;2.00;;;;;;;;;;5027676;28;20191;-87
2022/04/17 20:19:58;;;;;;;2.70;2.03;;;;;;;;;;5012803;28;20231;-87
2022/04/17 20:22:25;;;;;;;3.50;2.00;;;;;;;;;;5014558;28;20214;-86
2022/04/17 20:24:52;;;;;;;4.63;2.40;;;;;;;;;;5017181;28;20239;-87
2022/04/17 20:27:19;;;;;;;2.40;2.20;;;;;;;;;;5018525;28;20725;-87
2022/04/17 20:29:47;;;;;;;2.87;2.20;;;;;;;;;;5033321;28;20241;-86
2022/04/17 20:32:14;;;;;;;3.00;2.23;;;;;;;;;;5036696;28;20187;-85
2022/04/17 20:34:42;;;;;;;2.40;2.20;;;;;;;;;;5036036;28;20234;-86
2022/04/17 20:37:09;;;;;;;5.00;2.30;;;;;;;;;;5036743;28;20195;-86
2022/04/17 20:39:36;;;;;;;2.80;1.90;;;;;;;;;;5036823;28;20238;-86
2022/04/17 20:42:03;;;;;;;5.27;2.30;;;;;;;;;;5023078;28;20208;-87
2022/04/17 20:52:46;;;;;;;2.40;2.20;;;;;;;;;;5018602;28;20190;-86
2022/04/17 20:55:13;;;;;;;4.57;2.30;;;;;;;;;;5018003;28;20227;-86
2022/04/17 20:57:40;;;;;;;2.63;2.43;;;;;;;;;;5017659;28;20231;-87
2022/04/17 21:00:08;;;;;;;5.13;2.80;;;;;;;;;;5017509;28;20231;-86
2022/04/17 21:02:35;;;;;;;2.80;2.50;;;;;;;;;;5047148;28;20209;-86
2022/04/17 21:05:03;;;;;;;3.90;2.77;;;;;;;;;;5055390;28;20234;-86
2022/04/17 21:07:31;;;;;;;2.83;2.57;;;;;;;;;;5055851;28;20233;-86
2022/04/17 21:09:58;;;;;;;2.37;2.23;;;;;;;;;;5056085;28;20257;-86
2022/04/17 21:12:25;;;;;;;5.53;2.10;;;;;;;;;;5052235;28;20666;-86
2022/04/17 21:14:52;;;;;;;5.20;2.10;;;;;;;;;;5035892;28;20234;-87
2022/04/17 21:17:20;;;;;;;2.60;2.40;;;;;;;;;;5036277;28;20210;-86
2022/04/17 21:19:48;;;;;;;2.60;2.10;;;;;;;;;;5036550;28;20283;-85